createdAt,value
2022-10-05T00:01:53.176Z,11.94
2022-10-05T00:04:23.899Z,11.56
2022-10-05T00:07:14.544Z,12.37
2022-10-05T00:09:42.236Z,15.75
2022-10-05T00:12:17.683Z,17.23
2022-10-05T00:14:46.353Z,17.46
2022-10-05T00:17:24.895Z,16.01
2022-10-05T00:19:53.976Z,14.61
2022-10-05T00:22:23.468Z,13.67
2022-10-05T00:24:55.053Z,12.98
2022-10-05T00:27:24.844Z,12.43
2022-10-05T00:29:53.743Z,11.99
2022-10-05T00:32:21.356Z,11.62
2022-10-05T00:34:48.863Z,11.31
2022-10-05T00:37:16.453Z,12.34
2022-10-05T00:39:44.348Z,15.37
2022-10-05T00:42:40.313Z,17.01
2022-10-05T00:45:38.039Z,17.95
2022-10-05T00:48:27.026Z,17.64
2022-10-05T00:51:52.884Z,15.85
2022-10-05T00:54:32.473Z,14.25
2022-10-05T00:57:20.265Z,13.43
2022-10-05T01:00:12.503Z,12.77
2022-10-05T01:02:50.236Z,12.20
2022-10-05T01:05:47.170Z,11.78
2022-10-05T01:08:41.459Z,11.38
2022-10-05T01:11:14.640Z,12.83
2022-10-05T01:13:42.173Z,15.76
2022-10-05T01:16:30.106Z,17.00
2022-10-05T01:18:57.564Z,16.30
2022-10-05T01:21:26.302Z,14.86
2022-10-05T01:24:21.641Z,13.78
2022-10-05T01:26:58.178Z,12.94
2022-10-05T01:29:37.651Z,12.38
2022-10-05T01:32:14.265Z,11.93
2022-10-05T01:35:08.015Z,11.57
2022-10-05T01:37:41.458Z,11.24
2022-10-05T01:40:25.127Z,12.28
2022-10-05T01:42:55.958Z,15.62
2022-10-05T01:45:33.665Z,17.19
2022-10-05T01:48:09.640Z,18.05
2022-10-05T01:50:46.850Z,17.87
2022-10-05T01:53:18.250Z,16.19
2022-10-05T01:56:02.386Z,14.85
2022-10-05T01:58:32.683Z,13.84
2022-10-05T02:01:05.091Z,13.17
2022-10-05T02:03:38.596Z,12.63
2022-10-05T02:06:15.722Z,12.20
2022-10-05T02:09:21.861Z,11.84
2022-10-05T02:11:54.555Z,11.44
2022-10-05T02:14:28.677Z,12.54
2022-10-05T02:16:56.163Z,15.65
2022-10-05T02:19:35.599Z,17.14
2022-10-05T02:22:08.015Z,17.13
2022-10-05T02:24:43.499Z,15.50
2022-10-05T02:27:11.478Z,14.14
2022-10-05T02:29:40.225Z,13.24
2022-10-05T02:32:12.876Z,12.53
2022-10-05T02:34:41.660Z,13.35
2022-10-05T02:37:54.237Z,15.82
2022-10-05T02:40:35.479Z,15.00
2022-10-05T02:43:22.932Z,13.59
2022-10-05T02:46:03.216Z,12.59
2022-10-05T02:48:49.012Z,11.93
2022-10-05T02:51:23.210Z,13.37
2022-10-05T02:54:00.450Z,16.07
2022-10-05T02:56:43.221Z,17.19
2022-10-05T02:59:13.258Z,16.17
2022-10-05T03:01:49.179Z,14.69
2022-10-05T03:04:25.929Z,13.55
2022-10-05T03:07:17.140Z,12.71
2022-10-05T03:10:01.059Z,12.01
2022-10-05T03:12:39.586Z,12.32
2022-10-05T03:15:10.296Z,15.35
2022-10-05T03:17:46.559Z,16.96
2022-10-05T03:20:33.968Z,17.13
2022-10-05T03:23:02.410Z,15.40
2022-10-05T03:25:40.127Z,14.06
2022-10-05T03:28:10.488Z,13.07
2022-10-05T03:30:42.639Z,12.36
2022-10-05T03:33:29.068Z,12.96
2022-10-05T03:35:58.038Z,15.91
2022-10-05T03:38:34.797Z,17.04
2022-10-05T03:41:12.547Z,16.19
2022-10-05T03:44:08.189Z,14.65
2022-10-05T03:46:41.956Z,13.37
2022-10-05T03:49:11.524Z,12.56
2022-10-05T03:51:41.300Z,13.07
2022-10-05T03:54:26.626Z,15.67
2022-10-05T03:57:01.649Z,15.48
2022-10-05T03:59:32.911Z,13.96
2022-10-05T04:02:02.808Z,12.85
2022-10-05T04:04:38.993Z,12.85
2022-10-05T04:07:06.575Z,15.46
2022-10-05T04:09:40.795Z,15.93
2022-10-05T04:12:11.280Z,14.42
2022-10-05T04:14:41.705Z,13.28
2022-10-05T04:17:33.379Z,12.42
2022-10-05T04:20:04.535Z,13.54
2022-10-05T04:22:46.205Z,15.55
2022-10-05T04:25:26.595Z,14.70
2022-10-05T04:28:27.061Z,13.43
2022-10-05T04:30:57.149Z,12.37
2022-10-05T04:33:24.852Z,12.96
2022-10-05T04:35:56.818Z,15.54
2022-10-05T04:38:50.029Z,15.66
2022-10-05T04:41:42.385Z,14.15
2022-10-05T04:44:23.442Z,13.00
2022-10-05T04:47:27.846Z,12.23
2022-10-05T04:50:03.933Z,13.55
2022-10-05T04:52:34.950Z,16.19
2022-10-05T04:55:10.127Z,17.08
2022-10-05T04:58:00.299Z,15.80
2022-10-05T05:00:38.637Z,14.13
2022-10-05T05:03:32.499Z,13.12
2022-10-05T05:06:16.915Z,12.35
2022-10-05T05:09:03.600Z,11.82
2022-10-05T05:11:35.093Z,14.07
2022-10-05T05:14:34.599Z,16.38
2022-10-05T05:17:20.968Z,16.56
2022-10-05T05:20:05.798Z,14.99
2022-10-05T05:22:39.266Z,13.74
2022-10-05T05:25:36.009Z,12.90
2022-10-05T05:28:06.645Z,12.33
2022-10-05T05:30:54.581Z,14.46
2022-10-05T05:33:25.195Z,16.01
2022-10-05T05:36:27.999Z,14.80
2022-10-05T05:39:06.599Z,13.41
2022-10-05T05:41:38.681Z,12.70
2022-10-05T05:44:20.732Z,14.13
2022-10-05T05:47:15.164Z,16.33
2022-10-05T05:50:08.211Z,15.23
2022-10-05T05:52:45.921Z,13.82
2022-10-05T05:55:35.540Z,13.32
2022-10-05T05:58:11.105Z,15.75
2022-10-05T06:00:43.335Z,15.76
2022-10-05T06:03:38.654Z,14.57
2022-10-05T06:06:10.526Z,13.46
2022-10-05T06:08:42.981Z,13.30
2022-10-05T06:11:53.921Z,16.17
2022-10-05T06:14:32.531Z,16.06
2022-10-05T06:17:06.674Z,14.73
2022-10-05T06:19:34.643Z,13.71
2022-10-05T06:22:14.539Z,13.12
2022-10-05T06:25:06.922Z,14.06
2022-10-05T06:27:34.573Z,16.98
2022-10-05T06:30:13.451Z,16.86
2022-10-05T06:32:49.935Z,15.51
2022-10-05T06:35:38.633Z,14.52
2022-10-05T06:38:12.231Z,13.82
2022-10-05T06:41:11.071Z,13.38
2022-10-05T06:44:03.914Z,13.65
2022-10-05T06:46:51.101Z,16.90
2022-10-05T06:49:49.070Z,16.83
2022-10-05T06:52:49.358Z,15.52
2022-10-05T06:55:24.067Z,14.68
2022-10-05T06:58:07.769Z,14.06
2022-10-05T07:00:40.307Z,14.33
2022-10-05T07:03:24.005Z,17.24
2022-10-05T07:05:59.890Z,18.07
2022-10-05T07:08:40.357Z,16.91
2022-10-05T07:11:24.722Z,15.88
2022-10-05T07:14:16.304Z,15.16
2022-10-05T07:16:59.783Z,14.64
2022-10-05T07:19:52.477Z,14.25
2022-10-05T07:22:31.754Z,13.96
2022-10-05T07:25:45.048Z,15.56
2022-10-05T07:28:21.790Z,17.48
2022-10-05T07:30:58.935Z,16.45
2022-10-05T07:33:46.463Z,15.61
2022-10-05T07:36:53.713Z,15.10
2022-10-05T07:39:58.526Z,14.81
2022-10-05T07:42:48.907Z,14.70
2022-10-05T07:45:29.230Z,14.63
2022-10-05T07:47:59.726Z,14.59
2022-10-05T07:50:49.392Z,14.57
2022-10-05T07:53:22.616Z,15.62
2022-10-05T07:55:52.453Z,18.35
2022-10-05T07:58:30.134Z,18.15
2022-10-05T08:01:26.277Z,17.27
2022-10-05T08:03:57.195Z,16.57
2022-10-05T08:06:31.573Z,16.21
2022-10-05T08:09:04.670Z,15.93
2022-10-05T08:12:01.738Z,15.72
2022-10-05T08:15:03.858Z,15.55
2022-10-05T08:17:54.019Z,15.48
2022-10-05T08:20:45.105Z,15.50
2022-10-05T08:23:17.178Z,15.57
2022-10-05T08:25:49.208Z,15.64
2022-10-05T08:28:39.607Z,15.69
2022-10-05T08:31:32.221Z,15.75
2022-10-05T08:34:22.123Z,15.85
2022-10-05T08:37:01.774Z,15.89
2022-10-05T08:40:01.391Z,15.87
2022-10-05T08:42:47.333Z,15.88
2022-10-05T08:45:33.608Z,15.88
2022-10-05T08:48:19.507Z,15.91
2022-10-05T08:50:59.083Z,15.93
2022-10-05T08:53:26.588Z,15.92
2022-10-05T08:56:28.633Z,15.87
2022-10-05T08:59:15.342Z,15.83
2022-10-05T09:01:55.509Z,15.85
2022-10-05T09:04:59.635Z,15.81
2022-10-05T09:08:04.838Z,15.77
2022-10-05T09:10:51.019Z,15.80
2022-10-05T09:13:58.778Z,15.85
2022-10-05T09:16:43.412Z,15.96
2022-10-05T09:19:23.016Z,16.03
2022-10-05T09:21:57.896Z,16.08
2022-10-05T09:24:36.511Z,16.15
2022-10-05T09:27:10.633Z,16.20
2022-10-05T09:30:00.158Z,16.25
2022-10-05T09:32:58.651Z,16.31
2022-10-05T09:35:58.176Z,16.40
2022-10-05T09:38:39.864Z,16.64
2022-10-05T09:41:22.000Z,16.77
2022-10-05T09:44:11.095Z,16.92
2022-10-05T09:47:24.092Z,17.01
2022-10-05T09:50:07.021Z,17.06
2022-10-05T09:52:52.797Z,17.11
2022-10-05T09:55:51.269Z,17.30
2022-10-05T09:58:37.015Z,17.65
2022-10-05T10:01:32.656Z,18.02
2022-10-05T10:04:24.706Z,18.30
2022-10-05T10:06:55.234Z,18.56
2022-10-05T10:09:41.693Z,18.77
2022-10-05T10:12:09.171Z,18.83
2022-10-05T10:15:10.973Z,18.86
2022-10-05T10:17:53.798Z,19.00
2022-10-05T10:20:45.024Z,19.10
2022-10-05T10:23:15.509Z,19.32
2022-10-05T10:26:01.956Z,19.82
2022-10-05T10:28:39.787Z,20.87
2022-10-05T10:31:33.743Z,22.23
2022-10-05T10:34:44.117Z,23.81
2022-10-05T10:37:21.936Z,25.01
2022-10-05T10:40:14.126Z,25.52
2022-10-05T10:42:59.145Z,25.76
2022-10-05T10:46:06.079Z,26.04
2022-10-05T10:48:50.031Z,26.58
2022-10-05T10:51:25.982Z,27.13
2022-10-05T10:54:21.971Z,27.25
2022-10-05T10:56:58.253Z,27.27
2022-10-05T10:59:50.121Z,27.25
2022-10-05T11:02:42.415Z,26.86
2022-10-05T11:05:20.015Z,26.50
2022-10-05T11:08:09.793Z,26.07
2022-10-05T11:11:00.732Z,25.57
2022-10-05T11:13:31.111Z,25.07
2022-10-05T11:16:12.518Z,24.50
2022-10-05T11:19:07.611Z,24.16
2022-10-05T11:21:43.384Z,23.84
2022-10-05T11:24:26.418Z,23.63
2022-10-05T11:26:56.975Z,23.74
2022-10-05T11:29:41.396Z,23.86
2022-10-05T11:32:47.333Z,23.77
2022-10-05T11:35:38.323Z,23.43
2022-10-05T11:38:32.607Z,23.20
2022-10-05T11:41:24.148Z,23.06
2022-10-05T11:44:10.373Z,23.04
2022-10-05T11:47:03.201Z,22.90
2022-10-05T11:49:35.850Z,22.59
2022-10-05T11:52:30.785Z,22.28
2022-10-05T11:55:19.571Z,21.91
2022-10-05T11:57:57.102Z,21.56
2022-10-05T12:00:40.497Z,21.33
2022-10-05T12:03:33.539Z,21.12
2022-10-05T12:06:38.231Z,20.82
2022-10-05T12:09:30.732Z,20.59
2022-10-05T12:12:22.183Z,20.32
2022-10-05T12:14:54.276Z,20.05
2022-10-05T12:17:46.532Z,19.85
2022-10-05T12:20:20.951Z,19.67
2022-10-05T12:22:59.015Z,19.53
2022-10-05T12:25:39.118Z,19.42
2022-10-05T12:28:11.128Z,19.34
2022-10-05T12:31:22.456Z,19.31
2022-10-05T12:34:12.025Z,19.26
2022-10-05T12:37:04.110Z,19.16
2022-10-05T12:39:57.021Z,19.03
2022-10-05T12:42:40.869Z,19.00
2022-10-05T12:45:21.362Z,18.90
2022-10-05T12:47:58.061Z,18.90
2022-10-05T12:50:28.424Z,18.91
2022-10-05T12:52:59.428Z,18.91
2022-10-05T12:55:54.513Z,18.85
2022-10-05T12:58:45.661Z,18.79
2022-10-05T13:01:25.277Z,18.76
2022-10-05T13:03:55.182Z,18.74
2022-10-05T13:06:28.446Z,18.66
2022-10-05T13:08:58.718Z,18.58
2022-10-05T13:11:36.110Z,18.53
2022-10-05T13:14:42.792Z,18.52
2022-10-05T13:17:16.900Z,18.58
2022-10-05T13:19:47.093Z,18.58
2022-10-05T13:22:44.176Z,18.60
2022-10-05T13:25:27.188Z,18.54
2022-10-05T13:28:17.797Z,18.53
2022-10-05T13:30:51.739Z,18.49
2022-10-05T13:33:27.280Z,18.48
2022-10-05T13:36:30.024Z,18.50
2022-10-05T13:38:59.575Z,18.46
2022-10-05T13:41:54.510Z,18.45
2022-10-05T13:44:34.008Z,18.47
2022-10-05T13:47:09.211Z,18.44
2022-10-05T13:49:42.720Z,18.42
2022-10-05T13:52:19.726Z,18.37
2022-10-05T13:55:12.282Z,18.28
2022-10-05T13:58:02.455Z,18.19
2022-10-05T14:00:30.463Z,18.11
2022-10-05T14:02:58.704Z,18.04
2022-10-05T14:05:30.625Z,17.99
2022-10-05T14:08:04.285Z,17.94
2022-10-05T14:10:39.765Z,17.88
2022-10-05T14:13:22.418Z,17.85
2022-10-05T14:16:01.752Z,17.80
2022-10-05T14:18:32.719Z,17.74
2022-10-05T14:21:17.297Z,17.71
2022-10-05T14:23:45.051Z,17.66
2022-10-05T14:26:25.772Z,17.61
2022-10-05T14:28:58.622Z,17.57
2022-10-05T14:31:36.868Z,17.51
2022-10-05T14:34:31.699Z,17.45
2022-10-05T14:37:19.056Z,17.37
2022-10-05T14:39:48.795Z,17.35
2022-10-05T14:42:18.930Z,17.28
2022-10-05T14:45:00.011Z,17.21
2022-10-05T14:47:30.169Z,17.16
2022-10-05T14:50:13.919Z,17.10
2022-10-05T14:52:46.412Z,17.05
2022-10-05T14:55:38.892Z,16.96
2022-10-05T14:58:23.887Z,16.90
2022-10-05T15:00:58.822Z,16.85
2022-10-05T15:03:41.614Z,16.81
2022-10-05T15:06:16.258Z,16.76
2022-10-05T15:09:02.320Z,16.70
2022-10-05T15:11:38.702Z,16.66
2022-10-05T15:14:13.756Z,16.60
2022-10-05T15:16:42.211Z,16.55
2022-10-05T15:19:24.961Z,16.50
2022-10-05T15:22:07.500Z,16.45
2022-10-05T15:24:43.746Z,16.40
2022-10-05T15:27:36.406Z,17.67
2022-10-05T15:30:17.942Z,19.90
2022-10-05T15:32:49.809Z,19.12
2022-10-05T15:35:36.050Z,18.35
2022-10-05T15:38:26.582Z,17.76
2022-10-05T15:40:59.100Z,17.35
2022-10-05T15:43:33.481Z,17.07
2022-10-05T15:46:12.428Z,16.83
2022-10-05T15:49:14.594Z,16.62
2022-10-05T15:52:03.634Z,16.41
2022-10-05T15:54:49.959Z,16.25
2022-10-05T15:57:42.521Z,17.89
2022-10-05T16:00:17.273Z,20.58
2022-10-05T16:03:33.120Z,19.94
2022-10-05T16:06:24.392Z,18.61
2022-10-05T16:09:23.211Z,17.84
2022-10-05T16:12:06.916Z,17.25
2022-10-05T16:14:54.592Z,16.85
2022-10-05T16:17:33.787Z,16.55
2022-10-05T16:20:16.734Z,16.30
2022-10-05T16:23:21.593Z,16.17
2022-10-05T16:26:02.680Z,18.69
2022-10-05T16:28:42.701Z,18.71
2022-10-05T16:31:18.821Z,17.84
2022-10-05T16:33:54.629Z,17.19
2022-10-05T16:36:26.119Z,16.72
2022-10-05T16:39:00.184Z,16.41
2022-10-05T16:42:19.128Z,16.26
2022-10-05T16:45:18.452Z,19.13
2022-10-05T16:48:05.179Z,18.93
2022-10-05T16:50:48.893Z,17.90
2022-10-05T16:53:23.343Z,17.17
2022-10-05T16:56:01.147Z,16.68
2022-10-05T16:58:54.664Z,17.28
2022-10-05T17:01:45.949Z,19.23
2022-10-05T17:04:16.323Z,18.34
2022-10-05T17:07:02.493Z,17.49
2022-10-05T17:09:44.708Z,16.89
2022-10-05T17:12:34.224Z,16.49
2022-10-05T17:15:08.868Z,16.58
2022-10-05T17:17:58.390Z,19.02
2022-10-05T17:20:32.052Z,18.71
2022-10-05T17:23:04.362Z,17.71
2022-10-05T17:25:54.141Z,17.06
2022-10-05T17:28:23.263Z,16.82
2022-10-05T17:31:11.250Z,19.13
2022-10-05T17:34:03.518Z,19.00
2022-10-05T17:36:43.297Z,17.87
2022-10-05T17:39:50.159Z,17.14
2022-10-05T17:42:26.748Z,16.52
2022-10-05T17:44:55.208Z,16.20
2022-10-05T17:47:56.216Z,17.13
2022-10-05T17:51:02.871Z,19.89
2022-10-05T17:54:02.090Z,18.90
2022-10-05T17:56:31.081Z,17.63
2022-10-05T17:59:00.252Z,16.99
2022-10-05T18:01:38.467Z,16.50
2022-10-05T18:04:11.873Z,16.15
2022-10-05T18:07:00.220Z,15.89
2022-10-05T18:09:30.684Z,16.50
2022-10-05T18:12:16.477Z,19.11
2022-10-05T18:15:00.522Z,18.69
2022-10-05T18:17:46.268Z,17.62
2022-10-05T18:20:32.603Z,16.89
2022-10-05T18:23:01.180Z,16.37
2022-10-05T18:25:43.804Z,16.00
2022-10-05T18:28:14.075Z,16.54
2022-10-05T18:31:24.774Z,18.98
2022-10-05T18:34:14.220Z,18.33
2022-10-05T18:36:48.202Z,17.27
2022-10-05T18:39:27.634Z,16.64
2022-10-05T18:42:07.334Z,16.16
2022-10-05T18:44:46.348Z,15.81
2022-10-05T18:47:42.079Z,15.71
2022-10-05T18:50:23.061Z,18.10
2022-10-05T18:52:53.512Z,17.94
2022-10-05T18:55:44.925Z,17.12
2022-10-05T18:58:37.077Z,16.41
2022-10-05T19:01:41.662Z,15.94
2022-10-05T19:04:14.070Z,15.58
2022-10-05T19:06:50.406Z,15.37
2022-10-05T19:09:43.172Z,16.37
2022-10-05T19:12:35.142Z,19.00
2022-10-05T19:15:27.651Z,18.05
2022-10-05T19:17:58.740Z,17.06
2022-10-05T19:20:32.412Z,16.39
2022-10-05T19:23:18.611Z,15.96
2022-10-05T19:26:03.240Z,15.64
2022-10-05T19:28:55.843Z,15.62
2022-10-05T19:31:35.089Z,18.46
2022-10-05T19:34:40.977Z,18.76
2022-10-05T19:37:13.056Z,17.47
2022-10-05T19:39:55.112Z,16.71
2022-10-05T19:42:38.945Z,16.12
2022-10-05T19:45:22.859Z,15.72
2022-10-05T19:48:26.718Z,15.41
2022-10-05T19:50:58.433Z,15.15
2022-10-05T19:53:30.655Z,15.77
2022-10-05T19:56:12.727Z,18.50
2022-10-05T19:58:40.248Z,18.34
2022-10-05T20:01:07.893Z,17.34
2022-10-05T20:03:37.345Z,16.59
2022-10-05T20:06:06.525Z,16.03
2022-10-05T20:08:59.804Z,15.60
2022-10-05T20:11:28.034Z,15.23
2022-10-05T20:13:55.628Z,16.02
2022-10-05T20:16:44.952Z,18.58
2022-10-05T20:19:51.192Z,18.00
2022-10-05T20:22:46.134Z,16.84
2022-10-05T20:25:19.607Z,16.07
2022-10-05T20:27:50.657Z,15.57
2022-10-05T20:30:20.115Z,15.21
2022-10-05T20:32:48.703Z,15.03
2022-10-05T20:35:18.118Z,17.08
2022-10-05T20:37:45.658Z,17.88
2022-10-05T20:40:14.824Z,16.92
2022-10-05T20:42:42.364Z,16.14
2022-10-05T20:45:11.144Z,15.57
2022-10-05T20:47:38.985Z,15.17
2022-10-05T20:50:09.032Z,14.86
2022-10-05T20:52:39.666Z,16.56
2022-10-05T20:55:09.353Z,18.79
2022-10-05T20:57:41.521Z,18.12
2022-10-05T21:00:12.785Z,17.00
2022-10-05T21:02:40.357Z,16.13
2022-10-05T21:05:08.651Z,15.53
2022-10-05T21:07:36.416Z,15.09
2022-10-05T21:10:04.546Z,14.74
2022-10-05T21:12:33.970Z,15.83
2022-10-05T21:15:04.693Z,18.24
2022-10-05T21:17:34.611Z,17.73
2022-10-05T21:20:02.152Z,16.66
2022-10-05T21:22:29.718Z,15.86
2022-10-05T21:24:58.415Z,15.29
2022-10-05T21:27:26.130Z,14.87
2022-10-05T21:29:53.662Z,14.71
2022-10-05T21:32:21.206Z,17.00
2022-10-05T21:34:48.772Z,18.39
2022-10-05T21:37:16.492Z,17.41
2022-10-05T21:39:44.291Z,16.44
2022-10-05T21:42:11.917Z,15.71
2022-10-05T21:44:39.572Z,15.18
2022-10-05T21:47:07.047Z,14.79
2022-10-05T21:49:34.716Z,14.44
2022-10-05T21:52:02.325Z,15.08
2022-10-05T21:54:30.499Z,17.96
2022-10-05T21:56:58.859Z,18.70
2022-10-05T21:59:28.077Z,17.47
2022-10-05T22:01:55.580Z,16.42
2022-10-05T22:04:23.134Z,15.62
2022-10-05T22:06:51.219Z,15.03
2022-10-05T22:09:18.795Z,14.61
2022-10-05T22:11:47.922Z,15.44
2022-10-05T22:14:15.782Z,18.17
2022-10-05T22:16:43.726Z,18.32
2022-10-05T22:19:14.453Z,17.15
2022-10-05T22:21:42.036Z,16.10
2022-10-05T22:24:11.432Z,15.36
2022-10-05T22:26:39.571Z,14.82
2022-10-05T22:29:07.305Z,14.38
2022-10-05T22:31:35.131Z,14.02
2022-10-05T22:34:02.835Z,15.46
2022-10-05T22:36:30.395Z,18.11
2022-10-05T22:38:58.322Z,19.51
2022-10-05T22:41:25.897Z,19.63
2022-10-05T22:43:53.495Z,18.24
2022-10-05T22:46:21.161Z,16.90
2022-10-05T22:48:48.883Z,15.93
2022-10-05T22:51:16.670Z,15.24
2022-10-05T22:53:44.261Z,14.69
2022-10-05T22:56:13.097Z,14.25
2022-10-05T22:58:41.247Z,13.85
2022-10-05T23:01:10.811Z,14.78
2022-10-05T23:03:38.513Z,17.60
2022-10-05T23:06:11.041Z,18.81
2022-10-05T23:08:38.992Z,17.71
2022-10-05T23:11:14.282Z,16.42
2022-10-05T23:13:41.806Z,15.41
2022-10-05T23:16:17.434Z,14.72
2022-10-05T23:18:45.343Z,14.18
2022-10-05T23:21:12.862Z,13.75
2022-10-05T23:23:41.734Z,13.41
2022-10-05T23:26:10.639Z,14.39
2022-10-05T23:28:43.126Z,17.23
2022-10-05T23:31:10.802Z,18.22
2022-10-05T23:33:38.541Z,17.08
2022-10-05T23:36:26.034Z,15.81
2022-10-05T23:38:54.088Z,14.83
2022-10-05T23:41:21.801Z,14.21
2022-10-05T23:43:49.498Z,14.31
2022-10-05T23:46:17.793Z,16.89
2022-10-05T23:48:45.430Z,17.83
2022-10-05T23:51:13.193Z,16.67
2022-10-05T23:53:40.714Z,15.58
2022-10-05T23:56:08.280Z,14.76
2022-10-05T23:58:35.966Z,14.20
